PWSweather.com
Personal Weather Stations
Station Observations
KJ4AJP
Beautiful Downtown Gardner, Martin, TN 38237

Beautiful Downtown GardnerMartin, TN 38237

Lat: 36.358, Lon: -88.8994

Elevation: 384.3

Station Type: TP1080WC

http://weather.mambm.com/

High Low Average
Temperature 45.3°F7.4°C 37.6°F3.1°C 41.1°F5.1°C
Dew Point 45.1°F7.3°C 37.3°F2.9°C 40.8°F4.9°C
Winds 6.9 mph 11.1 kmh Calm Calm 1.0 mph SE1.6 kmh SE
Wind Gusts 17.4 mph28.0 kmh -- 4.0 mph6.4 kmh
Humidity 99% 96% 99%
Pressure 30.19 in1022.4 mb 30.01 in1016.3 mb -
Precipitation 0.47 in11.9 mm - -
Hour Temp Dew Point Humidity Winds Wind Gusts Pressure Precip Precip Rate Daily Precip Total
12:00 AM 38.3°F3.5°C 37.3°F2.9°C 96% 5.4 mph SSE8.7 kmh SSE 10.7 mph17.2 kmh 30.05 in1017.6 mb 0.08 in2.0 mm 0.00 in0.0 mm 0.41 in10.4 mm
12:15 AM 38.1°F3.4°C 37.1°F2.8°C 96% 5.4 mph SSE8.7 kmh SSE 13.0 mph20.9 kmh 30.04 in1017.3 mb 0.07 in1.8 mm 0.00 in0.0 mm 0.43 in10.9 mm
12:30 AM 38.3°F3.5°C 37.3°F2.9°C 96% 6.9 mph SSE11.1 kmh SSE 12.1 mph19.5 kmh 30.05 in1017.6 mb 0.06 in1.5 mm 0.00 in0.0 mm 0.44 in11.2 mm
12:45 AM 38.7°F3.7°C 37.6°F3.1°C 96% 3.8 mph SSE6.1 kmh SSE 15.9 mph25.6 kmh 30.04 in1017.3 mb 0.06 in1.5 mm 0.00 in0.0 mm 0.45 in11.4 mm
01:00 AM 38.7°F3.7°C 37.6°F3.1°C 96% 4.5 mph SSE7.2 kmh SSE 12.1 mph19.5 kmh 30.04 in1017.3 mb 0.04 in1.0 mm 0.00 in0.0 mm 0.08 in2.0 mm
01:15 AM 38.5°F3.6°C 37.7°F3.2°C 97% 3.8 mph SSE6.1 kmh SSE 10.7 mph17.2 kmh 30.04 in1017.3 mb 0.04 in1.0 mm 0.00 in0.0 mm 0.01 in0.3 mm
01:30 AM 38.7°F3.7°C 37.9°F3.3°C 97% 4.5 mph S7.2 kmh S 14.5 mph23.3 kmh 30.03 in1016.9 mb 0.05 in1.3 mm 0.04 in1.0 mm 0.04 in1.0 mm
01:45 AM 38.8°F3.8°C 38.3°F3.5°C 98% 6.9 mph S11.1 kmh S 13.6 mph21.9 kmh 30.04 in1017.3 mb 0.05 in1.3 mm 0.00 in0.0 mm 0.05 in1.3 mm
02:00 AM 39.0°F3.9°C 38.5°F3.6°C 98% 6.0 mph SE9.7 kmh SE 15.2 mph24.5 kmh 30.03 in1016.9 mb 0.06 in1.5 mm 0.01 in0.3 mm 0.06 in1.5 mm
02:15 AM 39.0°F3.9°C 38.8°F3.8°C 99% 6.9 mph S11.1 kmh S 13.6 mph21.9 kmh 30.01 in1016.3 mb 0.06 in1.5 mm 0.00 in0.0 mm 0.07 in1.8 mm
02:30 AM 39.0°F3.9°C 38.8°F3.8°C 99% 5.4 mph SSE8.7 kmh SSE 17.4 mph28.0 kmh 30.01 in1016.3 mb 0.05 in1.3 mm 0.00 in0.0 mm 0.08 in2.0 mm
02:45 AM 39.0°F3.9°C 38.8°F3.8°C 99% 3.8 mph SSE6.1 kmh SSE 9.8 mph15.8 kmh 30.01 in1016.3 mb 0.05 in1.3 mm 0.00 in0.0 mm 0.09 in2.3 mm
03:00 AM 39.0°F3.9°C 38.8°F3.8°C 99% 3.8 mph SSE6.1 kmh SSE 11.4 mph18.3 kmh 30.02 in1016.6 mb 0.05 in1.3 mm 0.00 in0.0 mm 0.11 in2.8 mm
03:15 AM 39.0°F3.9°C 38.8°F3.8°C 99% 3.8 mph SSE6.1 kmh SSE 10.7 mph17.2 kmh 30.01 in1016.3 mb 0.06 in1.5 mm 0.04 in1.0 mm 0.13 in3.3 mm
03:30 AM 39.2°F4.0°C 38.9°F3.8°C 99% 6.0 mph S9.7 kmh S 16.8 mph27.0 kmh 30.01 in1016.3 mb 0.07 in1.8 mm 0.04 in1.0 mm 0.15 in3.8 mm
03:45 AM 39.2°F4.0°C 38.9°F3.8°C 99% 3.1 mph SSW5.0 kmh SSW 9.2 mph14.8 kmh 30.03 in1016.9 mb 0.07 in1.8 mm 0.00 in0.0 mm 0.17 in4.3 mm
04:00 AM 39.0°F3.9°C 38.8°F3.8°C 99% 2.2 mph SSE3.5 kmh SSE 8.3 mph13.4 kmh 30.03 in1016.9 mb 0.08 in2.0 mm 0.01 in0.3 mm 0.19 in4.8 mm
04:15 AM 39.0°F3.9°C 38.8°F3.8°C 99% 1.6 mph S2.6 kmh S 6.0 mph9.7 kmh 30.02 in1016.6 mb 0.08 in2.0 mm 0.00 in0.0 mm 0.21 in5.3 mm
04:30 AM 39.0°F3.9°C 38.8°F3.8°C 99% 3.1 mph S5.0 kmh S 6.9 mph11.1 kmh 30.03 in1016.9 mb 0.08 in2.0 mm 0.00 in0.0 mm 0.24 in6.1 mm
04:45 AM 38.8°F3.8°C 38.6°F3.7°C 99% 0.7 mph SE1.1 kmh SE 5.4 mph8.7 kmh 30.02 in1016.6 mb 0.08 in2.0 mm 0.00 in0.0 mm 0.25 in6.4 mm
05:00 AM 38.7°F3.7°C 38.4°F3.6°C 99% Calm Calm 3.8 mph6.1 kmh 30.03 in1016.9 mb 0.07 in1.8 mm 0.00 in0.0 mm 0.26 in6.6 mm
05:15 AM 38.7°F3.7°C 38.4°F3.6°C 99% Calm Calm 2.2 mph3.5 kmh 30.03 in1016.9 mb 0.05 in1.3 mm 0.00 in0.0 mm 0.26 in6.6 mm
05:30 AM 38.5°F3.6°C 38.2°F3.4°C 99% 1.6 mph SE2.6 kmh SE 5.4 mph8.7 kmh 30.02 in1016.6 mb 0.04 in1.0 mm 0.00 in0.0 mm 0.27 in6.9 mm
05:45 AM 38.5°F3.6°C 38.2°F3.4°C 99% 1.6 mph WSW2.6 kmh WSW 3.1 mph5.0 kmh 30.04 in1017.3 mb 0.05 in1.3 mm 0.04 in1.0 mm 0.30 in7.6 mm
06:00 AM 38.5°F3.6°C 38.2°F3.4°C 99% 1.6 mph WSW2.6 kmh WSW 3.1 mph5.0 kmh 30.05 in1017.6 mb 0.05 in1.3 mm 0.00 in0.0 mm 0.31 in7.9 mm
06:15 AM 38.3°F3.5°C 38.0°F3.3°C 99% Calm Calm 3.1 mph5.0 kmh 30.05 in1017.6 mb 0.05 in1.3 mm 0.00 in0.0 mm 0.31 in7.9 mm
06:30 AM 38.1°F3.4°C 37.9°F3.3°C 99% 0.7 mph NE1.1 kmh NE 1.6 mph2.6 kmh 30.06 in1017.9 mb 0.05 in1.3 mm 0.00 in0.0 mm 0.32 in8.1 mm
06:45 AM 37.9°F3.3°C 37.7°F3.2°C 99% Calm Calm 1.6 mph2.6 kmh 30.06 in1017.9 mb 0.05 in1.3 mm 0.00 in0.0 mm 0.34 in8.6 mm
07:00 AM 37.8°F3.2°C 37.5°F3.1°C 99% 0.7 mph SSE1.1 kmh SSE 2.2 mph3.5 kmh 30.06 in1017.9 mb 0.05 in1.3 mm 0.00 in0.0 mm 0.35 in8.9 mm
07:15 AM 37.8°F3.2°C 37.5°F3.1°C 99% Calm Calm 1.6 mph2.6 kmh 30.07 in1018.3 mb 0.05 in1.3 mm 0.00 in0.0 mm 0.35 in8.9 mm
07:30 AM 37.8°F3.2°C 37.5°F3.1°C 99% Calm Calm 1.6 mph2.6 kmh 30.07 in1018.3 mb 0.05 in1.3 mm 0.00 in0.0 mm 0.37 in9.4 mm
07:45 AM 37.6°F3.1°C 37.3°F2.9°C 99% 0.7 mph NW1.1 kmh NW 1.6 mph2.6 kmh 30.08 in1018.6 mb 0.06 in1.5 mm 0.04 in1.0 mm 0.40 in10.2 mm
08:00 AM 37.6°F3.1°C 37.3°F2.9°C 99% Calm Calm 3.8 mph6.1 kmh 30.07 in1018.3 mb 0.06 in1.5 mm 0.00 in0.0 mm 0.41 in10.4 mm
08:15 AM 37.6°F3.1°C 37.3°F2.9°C 99% Calm Calm 1.6 mph2.6 kmh 30.09 in1019.0 mb 0.07 in1.8 mm 0.04 in1.0 mm 0.43 in10.9 mm
08:30 AM 37.6°F3.1°C 37.3°F2.9°C 99% Calm Calm 1.6 mph2.6 kmh 30.09 in1019.0 mb 0.07 in1.8 mm 0.00 in0.0 mm 0.44 in11.2 mm
08:45 AM 37.6°F3.1°C 37.3°F2.9°C 99% Calm Calm 1.6 mph2.6 kmh 30.09 in1019.0 mb 0.05 in1.3 mm 0.00 in0.0 mm 0.45 in11.4 mm
09:00 AM 37.8°F3.2°C 37.5°F3.1°C 99% Calm Calm 1.6 mph2.6 kmh 30.10 in1019.3 mb 0.04 in1.0 mm 0.00 in0.0 mm 0.45 in11.4 mm
09:15 AM 37.8°F3.2°C 37.5°F3.1°C 99% 0.7 mph NE1.1 kmh NE 1.6 mph2.6 kmh 30.10 in1019.3 mb 0.04 in1.0 mm 0.00 in0.0 mm 0.46 in11.7 mm
09:30 AM 37.9°F3.3°C 37.7°F3.2°C 99% 0.7 mph N1.1 kmh N 3.1 mph5.0 kmh 30.11 in1019.6 mb 0.02 in0.5 mm 0.00 in0.0 mm 0.46 in11.7 mm
09:45 AM 38.1°F3.4°C 37.9°F3.3°C 99% 0.7 mph NE1.1 kmh NE 1.6 mph2.6 kmh 30.11 in1019.6 mb 0.02 in0.5 mm 0.00 in0.0 mm 0.47 in11.9 mm
10:00 AM 38.3°F3.5°C 38.0°F3.3°C 99% 0.7 mph ENE1.1 kmh ENE 2.2 mph3.5 kmh 30.11 in1019.6 mb 0.02 in0.5 mm 0.00 in0.0 mm 0.47 in11.9 mm
10:15 AM 39.0°F3.9°C 38.8°F3.8°C 99% 1.6 mph E2.6 kmh E 3.8 mph6.1 kmh 30.11 in1019.6 mb 0.01 in0.3 mm 0.00 in0.0 mm 0.47 in11.9 mm
10:30 AM 39.9°F4.4°C 39.7°F4.3°C 99% 3.1 mph E5.0 kmh E 6.9 mph11.1 kmh 30.11 in1019.6 mb 0.01 in0.3 mm 0.00 in0.0 mm 0.47 in11.9 mm
10:45 AM 40.5°F4.7°C 40.2°F4.6°C 99% 4.5 mph SE7.2 kmh SE 8.3 mph13.4 kmh 30.11 in1019.6 mb 0.00 in0.0 mm 0.00 in0.0 mm 0.47 in11.9 mm
11:00 AM 41.4°F5.2°C 41.1°F5.1°C 99% 3.8 mph SE6.1 kmh SE 6.0 mph9.7 kmh 30.11 in1019.6 mb 0.00 in0.0 mm 0.00 in0.0 mm 0.47 in11.9 mm
11:15 AM 42.3°F5.7°C 42.0°F5.6°C 99% 0.7 mph SE1.1 kmh SE 6.9 mph11.1 kmh 30.13 in1020.3 mb 0.00 in0.0 mm 0.00 in0.0 mm 0.47 in11.9 mm
11:30 AM 42.4°F5.8°C 42.2°F5.7°C 99% 1.6 mph SE2.6 kmh SE 4.5 mph7.2 kmh 30.13 in1020.3 mb 0.00 in0.0 mm 0.00 in0.0 mm 0.47 in11.9 mm
11:45 AM 42.6°F5.9°C 42.4°F5.8°C 99% 1.6 mph SE2.6 kmh SE 4.5 mph7.2 kmh 30.12 in1020.0 mb 0.00 in0.0 mm 0.00 in0.0 mm 0.47 in11.9 mm
12:00 PM 42.8°F6.0°C 42.5°F5.8°C 99% 2.2 mph SE3.5 kmh SE 5.4 mph8.7 kmh 30.12 in1020.0 mb 0.00 in0.0 mm 0.00 in0.0 mm 0.47 in11.9 mm
12:15 PM 43.2°F6.2°C 42.9°F6.1°C 99% 2.2 mph SE3.5 kmh SE 5.4 mph8.7 kmh 30.11 in1019.6 mb 0.00 in0.0 mm 0.00 in0.0 mm 0.47 in11.9 mm
12:30 PM 43.3°F6.3°C 43.1°F6.2°C 99% 2.2 mph SE3.5 kmh SE 5.4 mph8.7 kmh 30.10 in1019.3 mb 0.00 in0.0 mm 0.00 in0.0 mm 0.47 in11.9 mm
12:45 PM 43.5°F6.4°C 43.3°F6.3°C 99% 1.6 mph SE2.6 kmh SE 6.9 mph11.1 kmh 30.09 in1019.0 mb 0.00 in0.0 mm 0.00 in0.0 mm 0.47 in11.9 mm
01:00 PM 43.7°F6.5°C 43.4°F6.3°C 99% 0.7 mph SE1.1 kmh SE 7.6 mph12.2 kmh 30.09 in1019.0 mb 0.00 in0.0 mm 0.00 in0.0 mm 0.47 in11.9 mm
01:15 PM 44.1°F6.7°C 43.8°F6.6°C 99% 2.2 mph ESE3.5 kmh ESE 4.5 mph7.2 kmh 30.08 in1018.6 mb 0.00 in0.0 mm 0.00 in0.0 mm 0.47 in11.9 mm
01:30 PM 44.4°F6.9°C 44.2°F6.8°C 99% 0.7 mph SE1.1 kmh SE 6.0 mph9.7 kmh 30.08 in1018.6 mb 0.00 in0.0 mm 0.00 in0.0 mm 0.47 in11.9 mm
01:45 PM 44.4°F6.9°C 44.2°F6.8°C 99% 2.2 mph SE3.5 kmh SE 5.4 mph8.7 kmh 30.08 in1018.6 mb 0.00 in0.0 mm 0.00 in0.0 mm 0.47 in11.9 mm
02:00 PM 44.4°F6.9°C 44.2°F6.8°C 99% 3.1 mph SE5.0 kmh SE 5.4 mph8.7 kmh 30.07 in1018.3 mb 0.00 in0.0 mm 0.00 in0.0 mm 0.47 in11.9 mm
02:15 PM 45.0°F7.2°C 44.7°F7.1°C 99% 1.6 mph ESE2.6 kmh ESE 5.4 mph8.7 kmh 30.08 in1018.6 mb 0.00 in0.0 mm 0.00 in0.0 mm 0.47 in11.9 mm
02:30 PM 45.1°F7.3°C 44.9°F7.2°C 99% Calm Calm 2.2 mph3.5 kmh 30.09 in1019.0 mb 0.00 in0.0 mm 0.00 in0.0 mm 0.47 in11.9 mm
02:45 PM 45.1°F7.3°C 44.9°F7.2°C 99% Calm Calm 1.6 mph2.6 kmh 30.08 in1018.6 mb 0.00 in0.0 mm 0.00 in0.0 mm 0.47 in11.9 mm
03:00 PM 45.3°F7.4°C 45.1°F7.3°C 99% 0.7 mph ESE1.1 kmh ESE 2.2 mph3.5 kmh 30.07 in1018.3 mb 0.00 in0.0 mm 0.00 in0.0 mm 0.47 in11.9 mm
03:15 PM 45.3°F7.4°C 45.1°F7.3°C 99% 1.6 mph SE2.6 kmh SE 3.1 mph5.0 kmh 30.06 in1017.9 mb 0.00 in0.0 mm 0.00 in0.0 mm 0.47 in11.9 mm
03:30 PM 45.3°F7.4°C 45.1°F7.3°C 99% Calm Calm 3.1 mph5.0 kmh 30.08 in1018.6 mb 0.00 in0.0 mm 0.00 in0.0 mm 0.47 in11.9 mm
03:45 PM 45.3°F7.4°C 45.1°F7.3°C 99% 0.7 mph S1.1 kmh S 2.2 mph3.5 kmh 30.08 in1018.6 mb 0.00 in0.0 mm 0.00 in0.0 mm 0.47 in11.9 mm
04:00 PM 45.1°F7.3°C 44.9°F7.2°C 99% Calm Calm 1.6 mph2.6 kmh 30.09 in1019.0 mb 0.00 in0.0 mm 0.00 in0.0 mm 0.47 in11.9 mm
04:15 PM 45.1°F7.3°C 44.9°F7.2°C 99% Calm Calm 1.6 mph2.6 kmh 30.09 in1019.0 mb 0.00 in0.0 mm 0.00 in0.0 mm 0.47 in11.9 mm
04:30 PM 45.1°F7.3°C 44.9°F7.2°C 99% Calm Calm 1.6 mph2.6 kmh 30.09 in1019.0 mb 0.00 in0.0 mm 0.00 in0.0 mm 0.47 in11.9 mm
04:45 PM 45.0°F7.2°C 44.7°F7.1°C 99% Calm Calm 2.2 mph3.5 kmh 30.09 in1019.0 mb 0.00 in0.0 mm 0.00 in0.0 mm 0.47 in11.9 mm
05:00 PM 45.0°F7.2°C 44.7°F7.1°C 99% Calm Calm 1.6 mph2.6 kmh 30.10 in1019.3 mb 0.00 in0.0 mm 0.00 in0.0 mm 0.47 in11.9 mm
05:15 PM 44.8°F7.1°C 44.5°F6.9°C 99% Calm Calm 1.6 mph2.6 kmh 30.10 in1019.3 mb 0.00 in0.0 mm 0.00 in0.0 mm 0.47 in11.9 mm
05:30 PM 44.6°F7.0°C 44.3°F6.8°C 99% 0.7 mph N1.1 kmh N 2.2 mph3.5 kmh 30.11 in1019.6 mb 0.00 in0.0 mm 0.00 in0.0 mm 0.47 in11.9 mm
05:45 PM 44.1°F6.7°C 43.8°F6.6°C 99% Calm Calm 1.6 mph2.6 kmh 30.12 in1020.0 mb 0.00 in0.0 mm 0.00 in0.0 mm 0.47 in11.9 mm
06:00 PM 43.7°F6.5°C 43.4°F6.3°C 99% Calm Calm -- 30.12 in1020.0 mb 0.00 in0.0 mm 0.00 in0.0 mm 0.47 in11.9 mm
06:15 PM 43.3°F6.3°C 43.1°F6.2°C 99% Calm Calm 1.6 mph2.6 kmh 30.13 in1020.3 mb 0.00 in0.0 mm 0.00 in0.0 mm 0.47 in11.9 mm
06:30 PM 43.0°F6.1°C 42.7°F5.9°C 99% Calm Calm 0.7 mph1.1 kmh 30.14 in1020.7 mb 0.00 in0.0 mm 0.00 in0.0 mm 0.47 in11.9 mm
06:45 PM 42.8°F6.0°C 42.5°F5.8°C 99% Calm Calm 1.6 mph2.6 kmh 30.14 in1020.7 mb 0.00 in0.0 mm 0.00 in0.0 mm 0.47 in11.9 mm
07:00 PM 42.4°F5.8°C 42.2°F5.7°C 99% Calm Calm 2.2 mph3.5 kmh 30.14 in1020.7 mb 0.00 in0.0 mm 0.00 in0.0 mm 0.47 in11.9 mm
07:15 PM 42.3°F5.7°C 42.0°F5.6°C 99% Calm Calm 2.2 mph3.5 kmh 30.14 in1020.7 mb 0.00 in0.0 mm 0.00 in0.0 mm 0.47 in11.9 mm
07:30 PM 42.1°F5.6°C 41.8°F5.4°C 99% Calm Calm 1.6 mph2.6 kmh 30.15 in1021.0 mb 0.00 in0.0 mm 0.00 in0.0 mm 0.47 in11.9 mm
07:45 PM 42.1°F5.6°C 41.8°F5.4°C 99% Calm Calm -- 30.16 in1021.3 mb 0.00 in0.0 mm 0.00 in0.0 mm 0.47 in11.9 mm
08:00 PM 41.9°F5.5°C 41.6°F5.3°C 99% Calm Calm -- 30.15 in1021.0 mb 0.00 in0.0 mm 0.00 in0.0 mm 0.47 in11.9 mm
08:15 PM 41.9°F5.5°C 41.6°F5.3°C 99% Calm Calm -- 30.15 in1021.0 mb 0.00 in0.0 mm 0.00 in0.0 mm 0.47 in11.9 mm
08:30 PM 41.7°F5.4°C 41.5°F5.3°C 99% Calm Calm 2.2 mph3.5 kmh 30.15 in1021.0 mb 0.00 in0.0 mm 0.00 in0.0 mm 0.47 in11.9 mm
08:45 PM 41.5°F5.3°C 41.3°F5.2°C 99% 0.7 mph N1.1 kmh N 2.2 mph3.5 kmh 30.16 in1021.3 mb 0.00 in0.0 mm 0.00 in0.0 mm 0.47 in11.9 mm
09:00 PM 41.4°F5.2°C 41.1°F5.1°C 99% 0.7 mph N1.1 kmh N 2.2 mph3.5 kmh 30.17 in1021.7 mb 0.00 in0.0 mm 0.00 in0.0 mm 0.47 in11.9 mm
09:15 PM 41.5°F5.3°C 41.3°F5.2°C 99% 0.7 mph N1.1 kmh N 2.2 mph3.5 kmh 30.17 in1021.7 mb 0.00 in0.0 mm 0.00 in0.0 mm 0.47 in11.9 mm
09:30 PM 41.4°F5.2°C 41.1°F5.1°C 99% Calm Calm 1.6 mph2.6 kmh 30.17 in1021.7 mb 0.00 in0.0 mm 0.00 in0.0 mm 0.47 in11.9 mm
09:45 PM 41.4°F5.2°C 41.1°F5.1°C 99% Calm Calm 2.2 mph3.5 kmh 30.17 in1021.7 mb 0.00 in0.0 mm 0.00 in0.0 mm 0.47 in11.9 mm
10:00 PM 41.4°F5.2°C 41.1°F5.1°C 99% 0.7 mph NNE1.1 kmh NNE 2.2 mph3.5 kmh 30.17 in1021.7 mb 0.00 in0.0 mm 0.00 in0.0 mm 0.47 in11.9 mm
10:15 PM 41.4°F5.2°C 41.1°F5.1°C 99% Calm Calm 1.6 mph2.6 kmh 30.18 in1022.0 mb 0.00 in0.0 mm 0.00 in0.0 mm 0.47 in11.9 mm
10:30 PM 41.2°F5.1°C 40.9°F4.9°C 99% Calm Calm 0.7 mph1.1 kmh 30.17 in1021.7 mb 0.00 in0.0 mm 0.00 in0.0 mm 0.47 in11.9 mm
10:45 PM 41.2°F5.1°C 40.9°F4.9°C 99% Calm Calm 0.7 mph1.1 kmh 30.18 in1022.0 mb 0.00 in0.0 mm 0.00 in0.0 mm 0.47 in11.9 mm
11:00 PM 41.2°F5.1°C 40.9°F4.9°C 99% Calm Calm 2.2 mph3.5 kmh 30.19 in1022.4 mb 0.00 in0.0 mm 0.00 in0.0 mm 0.47 in11.9 mm
11:15 PM 41.0°F5.0°C 40.7°F4.8°C 99% Calm Calm 1.6 mph2.6 kmh 30.18 in1022.0 mb 0.00 in0.0 mm 0.00 in0.0 mm 0.47 in11.9 mm
11:30 PM 40.8°F4.9°C 40.6°F4.8°C 99% Calm Calm 0.7 mph1.1 kmh 30.18 in1022.0 mb 0.00 in0.0 mm 0.00 in0.0 mm 0.47 in11.9 mm
11:45 PM 40.8°F4.9°C 40.6°F4.8°C 99% Calm Calm 1.6 mph2.6 kmh 30.18 in1022.0 mb 0.00 in0.0 mm 0.00 in0.0 mm 0.47 in11.9 mm